Waterloo, Nebraska
Current Conditions -  °F | °C
As of 4:35 PM on Monday 20 Oct 2014 (Local Time) from KMLE Reporting Station
Clear Clear  
Wind Chill: 71°   Ceiling: Unl
Heat Index: 71°   Visibility: 10mi
Dew Point: 39°   Wind: 0mph
Humidity: 31%   Direction: NA
Pressure: 30.04"   Gusts: NA
Location:  41.29°N, 96.29°W
Report Text: KMLE 202135Z AUTO 00000KT 10SM CLR 22/04 A3004 RMK AO2 T02170038
Loading
Personal Weather Stations






























Interactive Weather Map
Tropical Storm Tracking
New forecast layout! Learn more

10-Day Weather Forecast

Advertisements
Track Severe Weather on mobile